Time;durP1;ratioP1;P1;durP2;ratioP2;P2;SDS_P1;SDS_P2;PMS_P1;PMS_P2;Temp;Humidity;BMP_temperature;BMP_pressure;BME280_temperature;BME280_humidity;BME280_pressure;Samples;Min_cycle;Max_cycle;Signal;HPM_P1;HPM_P2
2023/07/17 00:01:19;;;;;;;4.68;3.20;;;;;;;19.78;100.00;96243.91;5068627;28;20330;-69
2023/07/17 00:03:44;;;;;;;6.03;3.65;;;;;;;19.79;100.00;96247.41;5067103;28;20065;-70
2023/07/17 00:06:10;;;;;;;3.90;3.22;;;;;;;19.78;100.00;96251.06;5068820;28;20050;-69
2023/07/17 00:08:35;;;;;;;4.50;3.80;;;;;;;19.85;100.00;96244.81;5055367;28;20101;-70
2023/07/17 00:11:01;;;;;;;3.83;3.42;;;;;;;19.89;100.00;96250.63;5065913;28;20047;-70
2023/07/17 00:13:26;;;;;;;3.88;3.28;;;;;;;19.94;100.00;96245.56;5054086;28;20111;-70
2023/07/17 00:15:51;;;;;;;3.72;3.42;;;;;;;19.92;100.00;96250.28;5066260;28;20123;-70
2023/07/17 00:18:17;;;;;;;3.22;2.92;;;;;;;19.88;100.00;96246.28;5067590;28;20485;-69
2023/07/17 00:20:42;;;;;;;5.40;3.35;;;;;;;19.90;100.00;96245.09;5057163;28;20017;-70
2023/07/17 00:23:08;;;;;;;4.47;2.90;;;;;;;19.90;100.00;96239.75;5060840;28;20481;-69
2023/07/17 00:25:33;;;;;;;5.60;2.92;;;;;;;19.90;100.00;96244.25;5071495;28;20048;-70
2023/07/17 00:27:59;;;;;;;4.63;3.30;;;;;;;19.87;100.00;96228.59;5069721;28;20025;-69
2023/07/17 00:30:24;;;;;;;3.42;3.03;;;;;;;19.80;100.00;96220.50;5059539;28;20032;-70
2023/07/17 00:32:50;;;;;;;4.07;3.30;;;;;;;19.69;100.00;96211.13;5062301;28;20040;-69
2023/07/17 00:35:15;;;;;;;8.52;3.58;;;;;;;19.63;100.00;96211.03;5063483;28;20021;-70
2023/07/17 00:37:42;;;;;;;5.03;3.28;;;;;;;19.59;100.00;96211.41;5064187;28;20120;-69
2023/07/17 00:40:08;;;;;;;4.03;3.60;;;;;;;19.59;100.00;96210.59;5057551;28;20032;-70
2023/07/17 00:42:34;;;;;;;4.85;3.58;;;;;;;19.56;100.00;96200.28;5065289;28;20028;-69
2023/07/17 00:45:00;;;;;;;5.47;3.50;;;;;;;19.51;100.00;96200.00;5066566;28;20029;-69
2023/07/17 00:47:27;;;;;;;3.67;3.38;;;;;;;19.45;100.00;96186.41;5077056;28;20036;-70
2023/07/17 00:49:53;;;;;;;3.97;3.60;;;;;;;19.41;100.00;96179.78;5076512;28;20032;-70
2023/07/17 00:52:19;;;;;;;3.67;3.33;;;;;;;19.40;100.00;96169.28;5067832;28;20085;-70
2023/07/17 00:54:45;;;;;;;3.25;2.92;;;;;;;19.35;100.00;96156.50;5060805;28;20037;-70
2023/07/17 00:57:12;;;;;;;3.67;3.17;;;;;;;19.32;100.00;96143.50;5070404;28;20028;-70
2023/07/17 00:59:38;;;;;;;3.40;3.10;;;;;;;19.25;100.00;96146.09;5073282;28;20385;-70
2023/07/17 01:02:04;;;;;;;3.30;3.10;;;;;;;19.20;100.00;96132.47;5064871;28;20127;-70
2023/07/17 01:04:29;;;;;;;5.07;3.40;;;;;;;19.20;100.00;96120.97;5056823;28;20021;-69
2023/07/17 01:06:55;;;;;;;3.25;2.88;;;;;;;19.15;100.00;96102.84;5072811;28;20045;-70
2023/07/17 01:09:21;;;;;;;4.85;3.33;;;;;;;19.15;100.00;96100.19;5067766;28;20037;-69
2023/07/17 01:11:47;;;;;;;3.78;3.47;;;;;;;19.12;100.00;96106.75;5063762;28;20025;-69
2023/07/17 01:14:17;;;;;;;5.90;3.60;;;;;;;19.05;100.00;96111.13;5062167;28;20089;-70
2023/07/17 01:16:44;;;;;;;4.72;3.30;;;;;;;19.01;100.00;96113.38;5070459;28;20875;-70
2023/07/17 01:19:09;;;;;;;7.68;3.22;;;;;;;18.98;100.00;96111.03;5068297;28;20032;-69
2023/07/17 01:21:39;;;;;;;3.53;3.22;;;;;;;18.98;100.00;96113.72;5066836;28;20033;-70
2023/07/17 01:24:04;;;;;;;4.00;3.17;;;;;;;18.97;100.00;96105.88;5054043;28;20033;-70
2023/07/17 01:26:30;;;;;;;3.33;3.03;;;;;;;18.99;100.00;96102.03;5074195;28;20044;-70
2023/07/17 01:28:55;;;;;;;4.15;3.60;;;;;;;18.99;100.00;96082.53;5069165;28;20084;-70
2023/07/17 01:31:21;;;;;;;3.65;3.35;;;;;;;18.97;100.00;96073.88;5064530;28;20028;-69
2023/07/17 01:33:46;;;;;;;4.13;3.60;;;;;;;18.93;100.00;96067.25;5071103;28;20039;-69
2023/07/17 01:36:11;;;;;;;5.65;3.75;;;;;;;18.93;100.00;96061.91;5072186;28;20035;-69
2023/07/17 01:38:37;;;;;;;3.83;3.30;;;;;;;18.88;100.00;96065.13;5063333;28;20080;-69
2023/07/17 01:41:02;;;;;;;3.47;3.15;;;;;;;18.83;100.00;96064.88;5055914;28;20025;-70
2023/07/17 01:43:28;;;;;;;4.10;3.70;;;;;;;18.81;100.00;96058.91;5060272;28;20032;-69
2023/07/17 01:45:54;;;;;;;5.00;3.25;;;;;;;18.86;100.00;96067.16;5066156;28;20459;-70
2023/07/17 01:48:19;;;;;;;9.32;3.33;;;;;;;18.85;100.00;96071.66;5058011;28;20489;-69
2023/07/17 01:50:46;;;;;;;4.78;3.42;;;;;;;18.82;100.00;96064.03;5072148;28;20028;-70
2023/07/17 01:53:12;;;;;;;4.25;3.47;;;;;;;18.79;100.00;96067.06;5058094;28;20024;-69
2023/07/17 01:55:38;;;;;;;3.90;3.42;;;;;;;18.77;100.00;96058.44;5060309;28;20062;-70
2023/07/17 01:58:03;;;;;;;7.53;3.40;;;;;;;18.74;100.00;96038.28;5065511;28;20032;-69
2023/07/17 02:00:29;;;;;;;5.28;3.67;;;;;;;18.70;100.00;96020.19;5065857;28;20032;-69
2023/07/17 02:02:54;;;;;;;5.57;3.65;;;;;;;18.67;100.00;96017.88;5067457;28;20028;-70
2023/07/17 02:05:20;;;;;;;3.67;3.33;;;;;;;18.67;100.00;96023.19;5077938;28;20127;-69
2023/07/17 02:07:46;;;;;;;3.67;3.38;;;;;;;18.65;100.00;96010.06;5061761;28;20037;-69
2023/07/17 02:10:11;;;;;;;3.75;3.08;;;;;;;18.61;100.00;95982.94;5060142;28;20102;-69
2023/07/17 02:12:37;;;;;;;5.32;3.60;;;;;;;18.60;100.00;95970.63;5061101;28;20095;-69
2023/07/17 02:15:02;;;;;;;4.10;3.47;;;;;;;18.57;100.00;95971.00;5063214;28;20086;-69
2023/07/17 02:17:34;;;;;;;4.20;3.33;;;;;;;18.58;100.00;95963.84;5069554;28;20039;-69
2023/07/17 02:19:59;;;;;;;3.95;3.20;;;;;;;18.60;100.00;95970.63;5063263;28;20730;-70
2023/07/17 02:22:24;;;;;;;7.80;3.10;;;;;;;18.59;100.00;95971.63;5063949;28;20082;-70
2023/07/17 02:24:50;;;;;;;3.25;2.97;;;;;;;18.58;100.00;95974.50;5066674;28;20520;-69
2023/07/17 02:27:16;;;;;;;4.80;3.50;;;;;;;18.58;100.00;95980.66;5076351;28;20052;-70
2023/07/17 02:29:41;;;;;;;4.85;3.65;;;;;;;18.59;100.00;95984.16;5064259;28;20041;-69
2023/07/17 02:32:09;;;;;;;4.32;3.58;;;;;;;18.58;100.00;95977.97;5062446;28;20036;-70
2023/07/17 02:34:35;;;;;;;4.57;3.35;;;;;;;18.56;100.00;95982.66;5057673;28;20028;-69
2023/07/17 02:37:00;;;;;;;4.70;3.17;;;;;;;18.53;100.00;95975.03;5067518;28;20036;-69
2023/07/17 02:39:25;;;;;;;4.60;2.90;;;;;;;18.49;100.00;95957.78;5074471;28;20024;-70
2023/07/17 02:41:51;;;;;;;3.97;3.63;;;;;;;18.47;100.00;95941.16;5066630;28;20145;-70
2023/07/17 02:44:16;;;;;;;4.20;3.08;;;;;;;18.44;100.00;95936.16;5056520;28;20025;-69
2023/07/17 02:46:42;;;;;;;3.97;2.95;;;;;;;18.41;100.00;95921.38;5057542;28;20024;-69
2023/07/17 02:49:11;;;;;;;4.22;2.90;;;;;;;18.37;100.00;95914.78;5061619;28;20471;-70
2023/07/17 02:51:37;;;;;;;4.65;3.42;;;;;;;18.37;100.00;95908.59;5063980;28;20028;-69
2023/07/17 02:54:02;;;;;;;4.68;3.47;;;;;;;18.30;100.00;95900.50;5056136;28;20437;-70
2023/07/17 02:56:28;;;;;;;4.72;3.47;;;;;;;18.25;100.00;95897.59;5059829;28;20505;-69
2023/07/17 02:58:54;;;;;;;4.20;3.10;;;;;;;18.22;100.00;95880.13;5060270;28;20535;-70
2023/07/17 03:01:20;;;;;;;3.97;3.22;;;;;;;18.21;100.00;95864.34;5068888;28;20017;-70
2023/07/17 03:03:46;;;;;;;3.45;3.15;;;;;;;18.21;100.00;95867.00;5060581;28;20040;-70
2023/07/17 03:06:11;;;;;;;5.70;3.20;;;;;;;18.14;100.00;95851.78;5071053;28;20024;-70
2023/07/17 03:08:37;;;;;;;3.78;3.25;;;;;;;18.09;100.00;95614.38;5055701;28;20063;-70
2023/07/17 03:11:03;;;;;;;4.55;3.47;;;;;;;18.04;100.00;95691.38;5063147;28;20025;-69
2023/07/17 03:13:29;;;;;;;4.90;3.90;;;;;;;18.00;100.00;95736.19;5056147;28;20059;-70
2023/07/17 03:15:58;;;;;;;7.10;3.28;;;;;;;18.00;100.00;95730.03;5057308;28;20028;-69
2023/07/17 03:18:24;;;;;;;8.25;4.15;;;;;;;17.96;100.00;95720.78;5055343;28;20017;-69
2023/07/17 03:20:50;;;;;;;5.65;3.65;;;;;;;17.95;100.00;95703.97;5056526;28;20020;-69
2023/07/17 03:23:15;;;;;;;3.85;3.50;;;;;;;17.94;100.00;95697.00;5082427;28;20112;-69
2023/07/17 03:25:41;;;;;;;4.05;3.65;;;;;;;17.92;100.00;95707.00;5062304;28;20480;-69
2023/07/17 03:28:07;;;;;;;5.75;3.83;;;;;;;17.95;100.00;95700.50;5085134;28;20051;-69
2023/07/17 03:30:32;;;;;;;5.82;3.72;;;;;;;17.93;100.00;95695.34;5059371;28;20423;-69
2023/07/17 03:32:58;;;;;;;7.13;3.60;;;;;;;17.94;100.00;95699.66;5055229;28;20452;-70
2023/07/17 03:35:23;;;;;;;4.82;3.30;;;;;;;17.95;100.00;95705.81;5067193;28;20020;-69
2023/07/17 03:37:48;;;;;;;4.93;3.30;;;;;;;17.94;100.00;95702.31;5055395;28;20020;-70
2023/07/17 03:40:14;;;;;;;4.28;3.88;;;;;;;17.95;100.00;95669.34;5058491;28;20479;-69
2023/07/17 03:42:39;;;;;;;3.95;3.53;;;;;;;17.91;100.00;95441.72;5054805;28;20016;-70
2023/07/17 03:45:05;;;;;;;3.80;3.40;;;;;;;17.90;100.00;95496.00;5055453;28;20056;-69
2023/07/17 03:47:31;;;;;;;5.88;3.70;;;;;;;17.88;100.00;95540.63;5076686;28;20048;-69
2023/07/17 03:49:56;;;;;;;6.18;3.78;;;;;;;17.84;100.00;95531.38;5054376;28;20025;-69
2023/07/17 03:52:22;;;;;;;4.78;3.75;;;;;;;17.79;100.00;95544.44;5061646;28;20025;-70
2023/07/17 03:54:47;;;;;;;6.25;4.15;;;;;;;17.80;100.00;95559.41;5060920;28;20100;-70
2023/07/17 03:57:13;;;;;;;3.78;3.45;;;;;;;17.75;100.00;95571.44;5075974;28;20028;-70
2023/07/17 03:59:50;;;;;;;4.32;3.47;;;;;;;17.73;100.00;95570.00;5071153;28;20036;-70
2023/07/17 04:02:16;;;;;;;4.78;4.30;;;;;;;17.70;100.00;95544.56;5054911;28;20381;-70
2023/07/17 04:04:41;;;;;;;4.38;3.67;;;;;;;17.66;100.00;95527.34;5059496;28;20048;-70
2023/07/17 04:07:07;;;;;;;3.65;3.35;;;;;;;17.64;100.00;95536.50;5065287;28;20485;-70
2023/07/17 04:09:32;;;;;;;6.10;3.47;;;;;;;17.63;100.00;95514.41;5061372;28;20074;-70
2023/07/17 04:11:57;;;;;;;5.95;3.83;;;;;;;17.60;100.00;95536.09;5054242;28;20032;-70
2023/07/17 04:14:23;;;;;;;4.63;3.75;;;;;;;17.60;100.00;95541.41;5054730;28;20536;-70
2023/07/17 04:16:48;;;;;;;3.80;3.50;;;;;;;17.54;100.00;95539.50;5062261;28;20031;-70
2023/07/17 04:19:14;;;;;;;3.70;3.40;;;;;;;17.54;100.00;95515.53;5064892;28;20021;-70
2023/07/17 04:21:39;;;;;;;4.05;3.65;;;;;;;17.53;100.00;95504.09;5064580;28;20028;-70
2023/07/17 04:24:05;;;;;;;3.95;3.58;;;;;;;17.50;100.00;95482.34;5060500;28;20028;-71
2023/07/17 04:26:30;;;;;;;3.95;3.58;;;;;;;17.49;100.00;95406.19;5076229;28;20047;-71
2023/07/17 04:28:55;;;;;;;5.40;3.80;;;;;;;17.47;100.00;95379.78;5074764;28;20036;-70
2023/07/17 04:31:21;;;;;;;6.57;3.40;;;;;;;17.47;100.00;95367.28;5061701;28;20026;-70
2023/07/17 04:33:46;;;;;;;5.40;3.70;;;;;;;17.54;100.00;95351.38;5060174;28;20028;-69
2023/07/17 04:36:12;;;;;;;3.97;3.58;;;;;;;17.57;100.00;95340.31;5071634;28;20056;-70
2023/07/17 04:38:37;;;;;;;5.90;3.33;;;;;;;17.56;100.00;95333.38;5065832;28;20466;-70
2023/07/17 04:41:05;;;;;;;3.55;3.25;;;;;;;17.59;100.00;95310.88;5058493;28;20104;-71
2023/07/17 04:43:30;;;;;;;4.07;3.60;;;;;;;17.60;100.00;95294.69;5057802;28;20080;-70
2023/07/17 04:45:55;;;;;;;4.60;3.65;;;;;;;17.64;100.00;95287.16;5058264;28;20021;-71
2023/07/17 04:48:21;;;;;;;6.00;4.15;;;;;;;17.66;100.00;95157.34;5063933;28;20046;-70
2023/07/17 04:50:46;;;;;;;5.93;3.80;;;;;;;17.65;100.00;95129.09;5055093;28;20371;-70
2023/07/17 04:53:12;;;;;;;4.97;4.40;;;;;;;17.61;100.00;94891.78;5059221;28;20036;-70
2023/07/17 04:55:37;;;;;;;8.35;7.43;;;;;;;17.58;100.00;95043.91;5070527;28;20031;-70
2023/07/17 04:58:03;;;;;;;41.40;37.25;;;;;;;17.60;100.00;95001.13;5061189;28;20025;-70
2023/07/17 05:00:28;;;;;;;10.63;8.77;;;;;;;17.64;100.00;94917.19;5056569;28;20033;-70
2023/07/17 05:02:54;;;;;;;15.20;12.55;;;;;;;17.61;100.00;94914.94;5056504;28;20033;-70
2023/07/17 05:05:19;;;;;;;11.65;5.95;;;;;;;17.59;100.00;94831.81;5070598;28;20063;-71
2023/07/17 05:07:44;;;;;;;4.93;4.25;;;;;;;17.61;100.00;94780.00;5072425;28;20366;-70
2023/07/17 05:10:11;;;;;;;12.80;5.10;;;;;;;17.65;100.00;94361.78;5054619;28;20048;-70
2023/07/17 05:12:38;;;;;;;5.88;5.07;;;;;;;17.66;100.00;94533.72;5054619;28;20025;-70
2023/07/17 05:15:04;;;;;;;7.00;4.82;;;;;;;17.67;100.00;94657.78;5053889;28;20041;-70
2023/07/17 05:17:29;;;;;;;4.57;3.63;;;;;;;17.70;100.00;94612.94;5060998;28;20055;-70
2023/07/17 05:19:55;;;;;;;4.32;3.92;;;;;;;17.70;100.00;94582.84;5053696;28;20047;-70
2023/07/17 05:22:20;;;;;;;5.13;4.28;;;;;;;17.73;100.00;94531.84;5062212;28;20611;-70
2023/07/17 05:24:46;;;;;;;7.30;4.70;;;;;;;17.80;100.00;94513.19;5072287;28;20509;-70
2023/07/17 05:27:12;;;;;;;5.22;4.63;;;;;;;17.85;100.00;94426.28;5060856;28;20059;-70
2023/07/17 05:29:38;;;;;;;6.13;4.90;;;;;;;17.97;100.00;94516.13;5067855;28;20602;-70
2023/07/17 05:32:04;;;;;;;7.13;5.18;;;;;;;18.11;100.00;94530.16;5054002;28;20100;-70
2023/07/17 05:34:30;;;;;;;5.97;5.00;;;;;;;18.26;100.00;94533.31;5072193;28;20048;-70
2023/07/17 05:36:55;;;;;;;7.43;5.35;;;;;;;18.41;100.00;94537.47;5066006;28;20021;-70
2023/07/17 05:39:20;;;;;;;8.68;4.75;;;;;;;18.53;100.00;94554.38;5057085;28;20021;-70
2023/07/17 05:41:46;;;;;;;6.53;4.05;;;;;;;18.70;100.00;94575.94;5058274;28;20025;-70
2023/07/17 05:44:12;;;;;;;10.15;8.60;;;;;;;18.92;100.00;94580.06;5057135;28;20477;-70
2023/07/17 05:46:37;;;;;;;10.38;7.93;;;;;;;19.08;100.00;94702.16;5067578;28;20035;-70
2023/07/17 05:49:03;;;;;;;12.32;11.02;;;;;;;19.25;100.00;94762.97;5065437;28;20020;-70
2023/07/17 05:51:29;;;;;;;15.82;14.43;;;;;;;19.27;100.00;94798.25;5083424;28;20024;-70
2023/07/17 05:53:55;;;;;;;8.95;7.50;;;;;;;19.36;100.00;94820.16;5056615;28;20101;-70
2023/07/17 05:56:22;;;;;;;6.97;5.10;;;;;;;19.42;100.00;94865.47;5070375;28;20055;-70
2023/07/17 05:58:47;;;;;;;8.93;4.55;;;;;;;19.49;100.00;94880.59;5059801;28;20044;-70
2023/07/17 06:01:12;;;;;;;7.00;4.28;;;;;;;19.52;100.00;94906.84;5056946;28;20017;-70
2023/07/17 06:03:38;;;;;;;6.35;3.90;;;;;;;19.54;100.00;94934.97;5059224;28;20016;-70
2023/07/17 06:06:03;;;;;;;5.65;3.67;;;;;;;19.61;100.00;94964.31;5064987;28;20447;-70
2023/07/17 06:08:29;;;;;;;5.63;3.83;;;;;;;19.64;100.00;94976.38;5074151;28;20119;-70
2023/07/17 06:10:54;;;;;;;4.35;3.92;;;;;;;19.67;100.00;94970.59;5064097;28;20021;-70
2023/07/17 06:13:20;;;;;;;6.13;3.60;;;;;;;19.80;100.00;95031.13;5072756;28;20039;-69
2023/07/17 06:15:46;;;;;;;5.20;4.28;;;;;;;19.86;100.00;95079.13;5057912;28;20410;-69
2023/07/17 06:18:11;;;;;;;6.53;4.13;;;;;;;19.89;100.00;95118.81;5061929;28;20033;-69
2023/07/17 06:20:37;;;;;;;7.38;4.18;;;;;;;20.09;100.00;95138.44;5065492;28;20047;-69
2023/07/17 06:23:02;;;;;;;4.60;3.65;;;;;;;20.13;100.00;95159.16;5068164;28;20025;-70
2023/07/17 06:25:28;;;;;;;4.40;4.00;;;;;;;20.27;100.00;95205.34;5055997;28;20040;-70
2023/07/17 06:27:53;;;;;;;6.38;4.00;;;;;;;20.38;100.00;95245.75;5062294;28;20048;-69
2023/07/17 06:30:18;;;;;;;6.57;4.28;;;;;;;20.42;100.00;95297.75;5054725;28;20052;-69
2023/07/17 06:32:44;;;;;;;4.30;3.65;;;;;;;20.50;100.00;95347.50;5056703;28;20568;-69
2023/07/17 06:35:10;;;;;;;10.77;4.38;;;;;;;20.60;100.00;95444.13;5062612;28;20182;-70
2023/07/17 06:37:36;;;;;;;5.10;3.85;;;;;;;20.77;100.00;95535.41;5060645;28;20039;-71
2023/07/17 06:40:03;;;;;;;7.95;4.18;;;;;;;20.78;100.00;95566.50;5060298;28;20465;-71
2023/07/17 06:42:30;;;;;;;4.28;3.83;;;;;;;20.86;100.00;95576.19;5065147;28;20147;-70
2023/07/17 06:44:55;;;;;;;4.47;3.97;;;;;;;20.94;100.00;95585.84;5064967;28;20029;-69
2023/07/17 06:47:21;;;;;;;5.70;3.42;;;;;;;20.96;100.00;95630.06;5068808;28;20028;-68
2023/07/17 06:49:46;;;;;;;4.45;4.05;;;;;;;20.97;100.00;95657.66;5074073;28;20036;-68
2023/07/17 06:52:12;;;;;;;7.20;3.83;;;;;;;21.06;100.00;95685.03;5059813;28;20020;-68
2023/07/17 06:54:37;;;;;;;4.18;3.70;;;;;;;21.11;100.00;95702.13;5061951;28;20047;-69
2023/07/17 06:57:03;;;;;;;5.40;3.35;;;;;;;21.08;100.00;95705.19;5070990;28;20021;-70
2023/07/17 06:59:28;;;;;;;5.93;3.38;;;;;;;21.06;100.00;95717.94;5065784;28;20037;-69
2023/07/17 07:01:54;;;;;;;7.22;3.30;;;;;;;21.06;100.00;95728.66;5057237;28;20033;-70
2023/07/17 07:04:20;;;;;;;4.10;3.50;;;;;;;21.05;100.00;95729.69;5055399;28;20024;-69
2023/07/17 07:06:45;;;;;;;4.07;3.78;;;;;;;21.06;100.00;95736.69;5073366;28;20485;-70
2023/07/17 07:09:11;;;;;;;6.53;3.53;;;;;;;21.15;100.00;95732.78;5064180;28;20033;-69
2023/07/17 07:11:36;;;;;;;4.95;3.50;;;;;;;21.29;100.00;95788.97;5055963;28;20052;-70
2023/07/17 07:14:02;;;;;;;3.92;3.33;;;;;;;21.28;100.00;95792.66;5056287;28;20073;-69
2023/07/17 07:16:27;;;;;;;3.45;3.13;;;;;;;21.23;100.00;95795.16;5061709;28;20104;-70
2023/07/17 07:18:53;;;;;;;6.65;3.83;;;;;;;21.27;100.00;95805.25;5065435;28;20481;-70
2023/07/17 07:21:21;;;;;;;4.00;3.30;;;;;;;21.35;100.00;95833.69;5067905;28;20032;-69
2023/07/17 07:23:46;;;;;;;5.68;3.42;;;;;;;21.29;100.00;95842.50;5056748;28;20028;-70
2023/07/17 07:26:12;;;;;;;7.25;3.28;;;;;;;21.32;100.00;95861.66;5066567;28;20131;-70
2023/07/17 07:28:37;;;;;;;7.05;2.88;;;;;;;21.39;100.00;95860.84;5076217;28;20111;-70
2023/07/17 07:31:03;;;;;;;3.28;2.97;;;;;;;21.50;100.00;95865.59;5073522;28;20052;-70
2023/07/17 07:33:28;;;;;;;4.07;3.40;;;;;;;21.51;100.00;95853.00;5062190;28;20453;-70
2023/07/17 07:35:54;;;;;;;4.60;3.47;;;;;;;21.60;100.00;95859.81;5066199;28;20025;-70
2023/07/17 07:38:19;;;;;;;5.25;3.38;;;;;;;21.67;100.00;95884.75;5049930;28;20098;-70
2023/07/17 07:40:45;;;;;;;4.68;3.60;;;;;;;21.72;100.00;95898.34;5053952;28;20099;-70
2023/07/17 07:43:11;;;;;;;3.63;3.30;;;;;;;21.83;100.00;95925.56;5054722;28;20025;-69
2023/07/17 07:45:36;;;;;;;4.53;3.35;;;;;;;21.93;100.00;95928.63;5061024;28;20034;-69
2023/07/17 07:48:01;;;;;;;5.32;3.45;;;;;;;22.10;100.00;95923.66;5067716;28;20040;-69
2023/07/17 07:50:27;;;;;;;6.15;3.47;;;;;;;22.25;100.00;95944.88;5061094;28;20035;-70
2023/07/17 07:52:54;;;;;;;6.10;3.30;;;;;;;22.41;100.00;95954.34;5068034;28;20049;-70
2023/07/17 07:55:20;;;;;;;5.68;2.95;;;;;;;22.36;100.00;95972.09;5055861;28;20033;-70
2023/07/17 07:57:45;;;;;;;7.47;3.08;;;;;;;22.46;100.00;95975.16;5062075;28;20081;-70
2023/07/17 08:00:11;;;;;;;6.55;3.13;;;;;;;22.56;100.00;95991.66;5050328;28;20102;-70
2023/07/17 08:02:37;;;;;;;4.97;3.15;;;;;;;22.78;100.00;96010.19;5054653;28;20025;-69
2023/07/17 08:05:03;;;;;;;3.55;3.05;;;;;;;22.88;100.00;96004.38;5067262;28;20228;-69
2023/07/17 08:07:28;;;;;;;3.58;3.25;;;;;;;22.79;100.00;96024.44;5058175;28;20043;-69
2023/07/17 08:09:54;;;;;;;6.78;3.63;;;;;;;22.73;100.00;96020.72;5070595;28;20024;-68
2023/07/17 08:12:20;;;;;;;8.80;3.75;;;;;;;22.68;100.00;96053.56;5068924;28;20032;-69
2023/07/17 08:14:45;;;;;;;4.55;3.22;;;;;;;22.67;100.00;96054.59;5066135;28;20029;-70
2023/07/17 08:17:11;;;;;;;4.22;3.30;;;;;;;22.68;100.00;96063.47;5065467;28;20032;-70
2023/07/17 08:19:36;;;;;;;5.03;3.90;;;;;;;22.72;100.00;96057.47;5067431;28;20108;-70
2023/07/17 08:22:01;;;;;;;5.63;3.60;;;;;;;22.79;100.00;96057.44;5056919;28;20021;-71
2023/07/17 08:24:27;;;;;;;5.28;3.60;;;;;;;23.01;100.00;96067.91;5066167;28;20068;-70
2023/07/17 08:26:52;;;;;;;5.18;3.22;;;;;;;23.09;100.00;96094.50;5080074;28;20538;-70
2023/07/17 08:29:18;;;;;;;6.03;3.65;;;;;;;23.06;100.00;96084.19;5064381;28;21179;-71
2023/07/17 08:31:43;;;;;;;3.60;3.30;;;;;;;23.31;100.00;96087.03;5061014;28;20051;-69
2023/07/17 08:34:08;;;;;;;7.10;3.70;;;;;;;23.39;100.00;96103.94;5068881;28;20033;-69
2023/07/17 08:36:34;;;;;;;6.85;3.67;;;;;;;23.41;100.00;96102.72;5074247;28;20064;-68
2023/07/17 08:38:59;;;;;;;4.65;3.30;;;;;;;23.48;100.00;96104.53;5066806;28;20020;-67
2023/07/17 08:41:25;;;;;;;5.13;3.33;;;;;;;23.49;100.00;96116.94;5070743;28;20031;-67
2023/07/17 08:43:55;;;;;;;4.93;3.53;;;;;;;23.65;100.00;96119.13;5064232;28;20037;-68
2023/07/17 08:46:21;;;;;;;4.53;3.40;;;;;;;23.62;100.00;96119.56;5073127;28;20413;-67
2023/07/17 08:48:47;;;;;;;3.50;3.20;;;;;;;23.86;100.00;96120.66;5062521;28;20028;-68
2023/07/17 08:51:14;;;;;;;5.20;3.85;;;;;;;24.00;100.00;96120.59;5067247;28;20032;-67
2023/07/17 08:53:43;;;;;;;6.95;3.20;;;;;;;23.89;100.00;96131.00;5070357;28;20028;-68
2023/07/17 08:56:08;;;;;;;5.05;3.55;;;;;;;24.01;100.00;96133.00;5082757;28;20097;-68
2023/07/17 08:58:35;;;;;;;4.00;3.35;;;;;;;24.09;100.00;96118.50;5065778;28;20013;-68
2023/07/17 09:01:01;;;;;;;6.70;3.25;;;;;;;24.11;100.00;96119.09;5068958;28;20043;-67
2023/07/17 09:03:27;;;;;;;3.35;3.05;;;;;;;24.11;100.00;96128.00;5067050;28;20024;-68
2023/07/17 09:05:52;;;;;;;6.63;3.60;;;;;;;24.09;100.00;96140.81;5067694;28;20132;-67
2023/07/17 09:08:18;;;;;;;3.70;3.10;;;;;;;24.26;100.00;96134.91;5067771;28;20462;-67
2023/07/17 09:10:43;;;;;;;5.68;3.35;;;;;;;24.43;100.00;96129.84;5076568;28;20062;-68
2023/07/17 09:13:09;;;;;;;5.85;3.42;;;;;;;24.38;100.00;96125.13;5068046;28;20568;-68
2023/07/17 09:15:40;;;;;;;3.20;3.00;;;;;;;24.42;100.00;96133.53;5070201;28;20447;-67
2023/07/17 09:18:09;;;;;;;4.38;3.40;;;;;;;24.37;100.00;96142.31;5068045;28;20046;-67
2023/07/17 09:20:41;;;;;;;4.20;3.35;;;;;;;24.23;100.00;96155.03;5070656;28;20035;-67
2023/07/17 09:23:06;;;;;;;4.10;3.72;;;;;;;24.24;100.00;96145.06;5073631;28;20029;-67
2023/07/17 09:25:31;;;;;;;3.85;3.47;;;;;;;24.20;100.00;96151.94;5073050;28;20055;-68
2023/07/17 09:27:57;;;;;;;4.03;3.00;;;;;;;24.30;100.00;96147.72;5075700;28;20028;-68
2023/07/17 09:30:25;;;;;;;5.43;3.45;;;;;;;24.34;100.00;96155.34;5071559;28;20028;-68
2023/07/17 09:32:51;;;;;;;3.88;3.05;;;;;;;24.37;100.00;96168.38;5064797;28;20060;-68
2023/07/17 09:35:23;;;;;;;6.75;3.13;;;;;;;24.53;100.00;96175.91;5071571;28;20028;-68
2023/07/17 09:37:49;;;;;;;4.05;3.20;;;;;;;24.78;100.00;96180.50;5070400;28;20515;-68
2023/07/17 09:40:20;;;;;;;3.30;2.88;;;;;;;24.64;100.00;96203.16;5085872;28;20024;-68
2023/07/17 09:42:52;;;;;;;5.25;3.70;;;;;;;24.80;100.00;96204.53;5076087;28;20066;-68
2023/07/17 09:45:19;;;;;;;5.57;3.35;;;;;;;25.01;100.00;96184.44;5070316;28;20025;-68
2023/07/17 09:47:47;;;;;;;5.90;3.20;;;;;;;25.25;100.00;96200.78;5075361;28;20215;-68
2023/07/17 09:50:14;;;;;;;4.80;3.28;;;;;;;25.39;100.00;96202.28;5075457;28;20036;-68
2023/07/17 09:52:43;;;;;;;6.60;3.88;;;;;;;25.53;100.00;96207.56;5071670;28;20036;-68
2023/07/17 09:55:08;;;;;;;6.18;3.17;;;;;;;25.49;100.00;96209.06;5076343;28;20025;-68
2023/07/17 09:57:35;;;;;;;4.80;3.35;;;;;;;25.20;100.00;96209.56;5077538;28;20036;-69
2023/07/17 10:00:11;;;;;;;3.97;3.25;;;;;;;25.06;100.00;96222.28;5072611;28;20052;-68
2023/07/17 10:02:39;;;;;;;3.42;3.08;;;;;;;25.36;100.00;96228.84;5066286;28;20034;-68
2023/07/17 10:05:06;;;;;;;3.97;3.42;;;;;;;25.35;100.00;96224.50;5066837;28;20032;-68
2023/07/17 10:07:37;;;;;;;4.32;3.92;;;;;;;25.28;100.00;96236.19;5071119;28;20044;-67
2023/07/17 10:10:04;;;;;;;6.07;3.92;;;;;;;25.27;100.00;96225.63;5073474;28;20025;-67
2023/07/17 10:12:31;;;;;;;5.50;3.42;;;;;;;25.10;100.00;96228.91;5076797;28;20499;-68
2023/07/17 10:14:58;;;;;;;3.97;3.20;;;;;;;25.31;100.00;96229.50;5073740;28;20109;-67
2023/07/17 10:17:35;;;;;;;4.85;3.60;;;;;;;25.31;100.00;96232.22;5076533;28;20028;-67
2023/07/17 10:20:03;;;;;;;3.72;3.13;;;;;;;25.29;100.00;96221.66;5076526;28;20024;-68
2023/07/17 10:22:34;;;;;;;4.70;3.25;;;;;;;25.29;100.00;96229.75;5081971;28;20029;-69
2023/07/17 10:25:29;;;;;;;3.40;3.10;;;;;;;25.32;100.00;96233.88;5065109;28;20032;-69
2023/07/17 10:28:00;;;;;;;4.13;3.45;;;;;;;25.40;100.00;96230.06;5072204;28;20453;-69
2023/07/17 10:30:33;;;;;;;3.60;3.30;;;;;;;25.68;100.00;96209.91;5073969;28;20024;-69
2023/07/17 10:33:19;;;;;;;4.05;3.15;;;;;;;26.35;100.00;96202.81;5074483;28;20077;-69
2023/07/17 10:35:45;;;;;;;4.38;3.50;;;;;;;27.13;100.00;96200.97;5068098;28;20135;-69
2023/07/17 10:38:12;;;;;;;3.90;3.47;;;;;;;27.59;100.00;96178.72;5074569;28;20024;-70
2023/07/17 10:40:38;;;;;;;4.55;3.15;;;;;;;27.92;100.00;96176.41;5073764;28;20081;-70
2023/07/17 10:43:14;;;;;;;3.38;3.08;;;;;;;28.11;100.00;96168.91;5067200;28;20029;-70
2023/07/17 10:45:39;;;;;;;4.88;3.10;;;;;;;28.28;100.00;96177.09;5069998;28;20478;-70
2023/07/17 10:48:08;;;;;;;4.13;3.10;;;;;;;28.42;100.00;96174.91;5076401;28;20024;-70
2023/07/17 10:50:33;;;;;;;3.97;3.22;;;;;;;28.45;100.00;96179.84;5073526;28;20021;-69
2023/07/17 10:53:09;;;;;;;6.50;3.45;;;;;;;28.39;100.00;96169.97;5073935;28;20035;-69
2023/07/17 10:55:34;;;;;;;3.80;3.13;;;;;;;28.17;100.00;96181.50;5076556;28;20016;-70
2023/07/17 10:58:01;;;;;;;6.28;2.83;;;;;;;28.47;100.00;96182.28;5073832;28;20075;-69
2023/07/17 11:00:27;;;;;;;5.38;3.17;;;;;;;28.41;100.00;96179.50;5068239;28;20024;-69
2023/07/17 11:02:55;;;;;;;2.95;2.70;;;;;;;28.40;100.00;96182.44;5062725;28;20617;-71
2023/07/17 11:05:20;;;;;;;5.43;2.97;;;;;;;28.33;100.00;96176.34;5076256;28;20033;-70
2023/07/17 11:07:46;;;;;;;3.40;3.10;;;;;;;28.34;100.00;96180.72;5072334;28;20036;-70
2023/07/17 11:10:13;;;;;;;4.50;3.05;;;;;;;28.63;100.00;96178.78;5073246;28;20044;-70
2023/07/17 11:12:39;;;;;;;6.53;3.47;;;;;;;29.07;100.00;96183.56;5069961;28;20038;-70
2023/07/17 11:15:16;;;;;;;3.65;2.92;;;;;;;29.02;100.00;96181.59;5071628;28;20029;-71
2023/07/17 11:17:41;;;;;;;4.38;3.25;;;;;;;29.38;100.00;96180.44;5070200;28;20509;-70
2023/07/17 11:20:07;;;;;;;3.92;3.00;;;;;;;29.21;100.00;96184.03;5066437;28;20024;-70